sensor_id;sensor_type;location;lat;lon;timestamp;temperature;humidity
67165;SHT31;54093;50.014;19.984;2022-08-14T00:05:32;19.88;87.19
67165;SHT31;54093;50.014;19.984;2022-08-14T00:14:53;19.87;87.02
67165;SHT31;54093;50.014;19.984;2022-08-14T00:24:14;19.84;86.92
67165;SHT31;54093;50.014;19.984;2022-08-14T00:33:36;19.81;87.08
67165;SHT31;54093;50.014;19.984;2022-08-14T00:42:57;19.70;87.65
67165;SHT31;54093;50.014;19.984;2022-08-14T00:52:18;19.53;88.21
67165;SHT31;54093;50.014;19.984;2022-08-14T01:01:39;19.50;88.36
67165;SHT31;54093;50.014;19.984;2022-08-14T01:11:01;19.50;88.54
67165;SHT31;54093;50.014;19.984;2022-08-14T01:20:22;19.50;88.16
67165;SHT31;54093;50.014;19.984;2022-08-14T01:30:02;19.49;88.26
67165;SHT31;54093;50.014;19.984;2022-08-14T01:39:23;19.45;88.31
67165;SHT31;54093;50.014;19.984;2022-08-14T01:48:45;19.47;88.30
67165;SHT31;54093;50.014;19.984;2022-08-14T01:58:07;19.46;88.23
67165;SHT31;54093;50.014;19.984;2022-08-14T02:07:33;19.45;87.99
67165;SHT31;54093;50.014;19.984;2022-08-14T02:16:56;19.47;88.33
67165;SHT31;54093;50.014;19.984;2022-08-14T02:26:21;19.46;88.04
67165;SHT31;54093;50.014;19.984;2022-08-14T02:35:43;19.49;87.73
67165;SHT31;54093;50.014;19.984;2022-08-14T02:45:05;19.40;88.28
67165;SHT31;54093;50.014;19.984;2022-08-14T02:54:26;19.33;88.63
67165;SHT31;54093;50.014;19.984;2022-08-14T03:03:48;19.33;88.68
67165;SHT31;54093;50.014;19.984;2022-08-14T03:13:09;19.32;88.87
67165;SHT31;54093;50.014;19.984;2022-08-14T03:22:30;19.32;88.55
67165;SHT31;54093;50.014;19.984;2022-08-14T03:31:51;19.32;88.60
67165;SHT31;54093;50.014;19.984;2022-08-14T03:41:13;19.29;89.00
67165;SHT31;54093;50.014;19.984;2022-08-14T03:50:35;19.29;88.85
67165;SHT31;54093;50.014;19.984;2022-08-14T03:59:57;19.27;88.70
67165;SHT31;54093;50.014;19.984;2022-08-14T04:09:17;19.30;88.49
67165;SHT31;54093;50.014;19.984;2022-08-14T04:18:43;19.30;88.71
67165;SHT31;54093;50.014;19.984;2022-08-14T04:28:05;19.35;88.48
67165;SHT31;54093;50.014;19.984;2022-08-14T04:37:26;19.33;88.49
67165;SHT31;54093;50.014;19.984;2022-08-14T04:47:05;19.36;88.19
67165;SHT31;54093;50.014;19.984;2022-08-14T04:56:45;19.37;88.49
67165;SHT31;54093;50.014;19.984;2022-08-14T05:06:08;19.45;88.21
67165;SHT31;54093;50.014;19.984;2022-08-14T05:15:29;19.45;88.46
67165;SHT31;54093;50.014;19.984;2022-08-14T05:24:50;19.42;88.71
67165;SHT31;54093;50.014;19.984;2022-08-14T05:34:11;19.42;89.13
67165;SHT31;54093;50.014;19.984;2022-08-14T05:43:32;19.43;89.21
67165;SHT31;54093;50.014;19.984;2022-08-14T05:52:53;19.42;89.34
67165;SHT31;54093;50.014;19.984;2022-08-14T06:02:14;19.53;89.61
67165;SHT31;54093;50.014;19.984;2022-08-14T06:11:35;19.66;89.25
67165;SHT31;54093;50.014;19.984;2022-08-14T06:20:55;19.74;89.53
67165;SHT31;54093;50.014;19.984;2022-08-14T06:30:19;19.81;88.98
67165;SHT31;54093;50.014;19.984;2022-08-14T06:39:40;19.81;88.27
67165;SHT31;54093;50.014;19.984;2022-08-14T06:49:01;19.93;88.19
67165;SHT31;54093;50.014;19.984;2022-08-14T06:58:22;20.12;88.13
67165;SHT31;54093;50.014;19.984;2022-08-14T07:07:43;20.12;88.09
67165;SHT31;54093;50.014;19.984;2022-08-14T07:17:04;20.20;87.93
67165;SHT31;54093;50.014;19.984;2022-08-14T07:26:25;20.24;87.61
67165;SHT31;54093;50.014;19.984;2022-08-14T07:35:46;20.35;86.25
67165;SHT31;54093;50.014;19.984;2022-08-14T07:45:07;20.41;86.34
67165;SHT31;54093;50.014;19.984;2022-08-14T07:54:28;20.55;86.38
67165;SHT31;54093;50.014;19.984;2022-08-14T08:03:49;20.69;87.78
67165;SHT31;54093;50.014;19.984;2022-08-14T08:13:16;20.76;87.09
67165;SHT31;54093;50.014;19.984;2022-08-14T08:22:38;20.75;86.52
67165;SHT31;54093;50.014;19.984;2022-08-14T08:32:02;20.87;86.76
67165;SHT31;54093;50.014;19.984;2022-08-14T08:41:23;20.99;86.01
67165;SHT31;54093;50.014;19.984;2022-08-14T08:50:44;21.31;85.28
67165;SHT31;54093;50.014;19.984;2022-08-14T09:00:15;21.66;83.17
67165;SHT31;54093;50.014;19.984;2022-08-14T09:09:38;22.00;84.41
67165;SHT31;54093;50.014;19.984;2022-08-14T09:19:26;22.24;82.59
67165;SHT31;54093;50.014;19.984;2022-08-14T09:28:46;22.44;80.74
67165;SHT31;54093;50.014;19.984;2022-08-14T09:47:50;22.71;77.97
67165;SHT31;54093;50.014;19.984;2022-08-14T09:57:28;22.82;79.94
67165;SHT31;54093;50.014;19.984;2022-08-14T10:06:50;23.71;76.57
67165;SHT31;54093;50.014;19.984;2022-08-14T10:16:11;25.07;76.97
67165;SHT31;54093;50.014;19.984;2022-08-14T10:25:41;26.14;69.06
67165;SHT31;54093;50.014;19.984;2022-08-14T10:35:05;26.61;69.35
67165;SHT31;54093;50.014;19.984;2022-08-14T10:44:32;26.91;64.49
67165;SHT31;54093;50.014;19.984;2022-08-14T10:53:54;26.34;63.68
67165;SHT31;54093;50.014;19.984;2022-08-14T11:03:15;25.58;66.46
67165;SHT31;54093;50.014;19.984;2022-08-14T11:12:43;25.27;66.93
67165;SHT31;54093;50.014;19.984;2022-08-14T11:22:07;26.10;68.92
67165;SHT31;54093;50.014;19.984;2022-08-14T11:31:29;26.12;63.73
67165;SHT31;54093;50.014;19.984;2022-08-14T11:40:52;26.07;66.20
67165;SHT31;54093;50.014;19.984;2022-08-14T11:50:25;25.55;68.53
67165;SHT31;54093;50.014;19.984;2022-08-14T11:59:46;25.15;71.04
67165;SHT31;54093;50.014;19.984;2022-08-14T12:09:07;25.42;72.09
67165;SHT31;54093;50.014;19.984;2022-08-14T12:18:36;25.99;69.49
67165;SHT31;54093;50.014;19.984;2022-08-14T12:28:01;26.91;70.98
67165;SHT31;54093;50.014;19.984;2022-08-14T12:37:28;27.42;63.92
67165;SHT31;54093;50.014;19.984;2022-08-14T12:47:01;27.95;64.13
67165;SHT31;54093;50.014;19.984;2022-08-14T12:56:23;28.06;61.89
67165;SHT31;54093;50.014;19.984;2022-08-14T13:05:47;28.16;59.95
67165;SHT31;54093;50.014;19.984;2022-08-14T13:15:10;28.53;62.20
67165;SHT31;54093;50.014;19.984;2022-08-14T13:24:31;28.96;60.86
67165;SHT31;54093;50.014;19.984;2022-08-14T13:33:52;29.01;59.81
67165;SHT31;54093;50.014;19.984;2022-08-14T13:43:13;29.25;59.17
67165;SHT31;54093;50.014;19.984;2022-08-14T13:52:49;29.44;60.28
67165;SHT31;54093;50.014;19.984;2022-08-14T14:02:15;29.44;56.93
67165;SHT31;54093;50.014;19.984;2022-08-14T14:11:42;29.42;56.45
67165;SHT31;54093;50.014;19.984;2022-08-14T14:21:03;28.79;56.52
67165;SHT31;54093;50.014;19.984;2022-08-14T14:30:27;28.56;57.61
67165;SHT31;54093;50.014;19.984;2022-08-14T14:39:49;28.74;58.88
67165;SHT31;54093;50.014;19.984;2022-08-14T14:49:10;28.32;60.28
67165;SHT31;54093;50.014;19.984;2022-08-14T14:58:37;27.68;60.35
67165;SHT31;54093;50.014;19.984;2022-08-14T15:07:59;27.58;60.68
67165;SHT31;54093;50.014;19.984;2022-08-14T15:17:23;27.37;60.87
67165;SHT31;54093;50.014;19.984;2022-08-14T15:26:44;27.15;60.44
67165;SHT31;54093;50.014;19.984;2022-08-14T15:36:06;26.92;60.63
67165;SHT31;54093;50.014;19.984;2022-08-14T15:45:26;26.75;60.54
67165;SHT31;54093;50.014;19.984;2022-08-14T15:54:47;26.68;61.49
67165;SHT31;54093;50.014;19.984;2022-08-14T16:04:10;26.61;61.89
67165;SHT31;54093;50.014;19.984;2022-08-14T16:13:31;26.43;62.75
67165;SHT31;54093;50.014;19.984;2022-08-14T16:22:57;26.24;62.87
67165;SHT31;54093;50.014;19.984;2022-08-14T16:32:18;26.07;63.50
67165;SHT31;54093;50.014;19.984;2022-08-14T16:41:39;25.90;63.65
67165;SHT31;54093;50.014;19.984;2022-08-14T16:51:00;25.72;63.98
67165;SHT31;54093;50.014;19.984;2022-08-14T17:00:37;25.57;65.06
67165;SHT31;54093;50.014;19.984;2022-08-14T17:10:02;25.37;66.45
67165;SHT31;54093;50.014;19.984;2022-08-14T17:19:36;25.17;67.08
67165;SHT31;54093;50.014;19.984;2022-08-14T17:29:22;24.98;69.15
67165;SHT31;54093;50.014;19.984;2022-08-14T17:48:28;24.65;71.11
67165;SHT31;54093;50.014;19.984;2022-08-14T17:57:51;24.24;72.14
67165;SHT31;54093;50.014;19.984;2022-08-14T18:07:15;23.88;73.61
67165;SHT31;54093;50.014;19.984;2022-08-14T18:16:40;23.60;73.94
67165;SHT31;54093;50.014;19.984;2022-08-14T18:26:03;23.40;74.54
67165;SHT31;54093;50.014;19.984;2022-08-14T18:35:41;23.19;75.32
67165;SHT31;54093;50.014;19.984;2022-08-14T18:45:03;23.01;75.69
67165;SHT31;54093;50.014;19.984;2022-08-14T18:54:28;22.94;75.67
67165;SHT31;54093;50.014;19.984;2022-08-14T19:03:49;22.78;76.28
67165;SHT31;54093;50.014;19.984;2022-08-14T19:13:15;22.67;76.62
67165;SHT31;54093;50.014;19.984;2022-08-14T19:22:54;22.32;77.76
67165;SHT31;54093;50.014;19.984;2022-08-14T19:32:41;22.16;78.07
67165;SHT31;54093;50.014;19.984;2022-08-14T19:42:02;22.06;77.97
67165;SHT31;54093;50.014;19.984;2022-08-14T19:51:23;21.89;77.37
67165;SHT31;54093;50.014;19.984;2022-08-14T20:00:54;21.79;77.48
67165;SHT31;54093;50.014;19.984;2022-08-14T20:10:26;21.81;77.79
67165;SHT31;54093;50.014;19.984;2022-08-14T20:19:47;21.74;78.90
67165;SHT31;54093;50.014;19.984;2022-08-14T20:29:23;21.71;78.83
67165;SHT31;54093;50.014;19.984;2022-08-14T20:38:54;21.59;79.19
67165;SHT31;54093;50.014;19.984;2022-08-14T20:48:24;21.54;79.05
67165;SHT31;54093;50.014;19.984;2022-08-14T20:57:45;21.41;79.57
67165;SHT31;54093;50.014;19.984;2022-08-14T21:07:13;21.38;79.54
67165;SHT31;54093;50.014;19.984;2022-08-14T21:16:34;21.23;80.11
67165;SHT31;54093;50.014;19.984;2022-08-14T21:25:54;21.12;80.27
67165;SHT31;54093;50.014;19.984;2022-08-14T21:35:15;21.10;79.88
67165;SHT31;54093;50.014;19.984;2022-08-14T21:44:36;20.91;80.44
67165;SHT31;54093;50.014;19.984;2022-08-14T21:54:00;20.81;80.73
67165;SHT31;54093;50.014;19.984;2022-08-14T22:03:21;20.53;81.48
67165;SHT31;54093;50.014;19.984;2022-08-14T22:12:43;20.49;81.80
67165;SHT31;54093;50.014;19.984;2022-08-14T22:22:04;20.41;81.61
67165;SHT31;54093;50.014;19.984;2022-08-14T22:31:24;20.45;80.83
67165;SHT31;54093;50.014;19.984;2022-08-14T22:40:47;20.43;81.08
67165;SHT31;54093;50.014;19.984;2022-08-14T22:50:09;20.29;81.13
67165;SHT31;54093;50.014;19.984;2022-08-14T22:59:30;20.26;80.80
67165;SHT31;54093;50.014;19.984;2022-08-14T23:08:50;20.12;81.33
67165;SHT31;54093;50.014;19.984;2022-08-14T23:18:12;19.98;81.05
67165;SHT31;54093;50.014;19.984;2022-08-14T23:27:33;19.90;81.59
67165;SHT31;54093;50.014;19.984;2022-08-14T23:36:55;19.91;81.41
67165;SHT31;54093;50.014;19.984;2022-08-14T23:46:18;19.81;81.64
67165;SHT31;54093;50.014;19.984;2022-08-14T23:55:39;19.80;81.64
